createdAt,value
2023-03-23T16:00:33.474Z,23.50
2023-03-23T16:03:46.591Z,23.40
2023-03-23T16:06:59.880Z,23.40
2023-03-23T16:10:05.469Z,23.30
2023-03-23T16:13:15.459Z,23.30
2023-03-23T16:16:25.478Z,23.30
2023-03-23T16:19:35.881Z,23.30
2023-03-23T16:22:47.335Z,23.30
2023-03-23T16:25:59.259Z,23.30
2023-03-23T16:29:26.209Z,23.20
2023-03-23T16:35:41.967Z,23.20
2023-03-23T16:38:52.947Z,23.30
2023-03-23T16:42:04.729Z,23.20
2023-03-23T16:45:17.764Z,23.30
2023-03-23T16:48:28.824Z,23.30
2023-03-23T16:51:37.617Z,23.30
2023-03-23T16:54:48.177Z,23.30
2023-03-23T16:58:12.958Z,23.30
2023-03-23T17:01:09.661Z,23.30
2023-03-23T17:04:23.842Z,23.30
2023-03-23T17:07:37.133Z,23.30
2023-03-23T17:10:43.804Z,23.30
2023-03-23T17:13:52.304Z,23.40
2023-03-23T17:17:02.941Z,23.50
2023-03-23T17:20:16.732Z,23.70
2023-03-23T17:23:28.355Z,23.80
2023-03-23T17:26:36.716Z,23.90
2023-03-23T17:29:48.253Z,23.80
2023-03-23T17:33:00.286Z,23.70
2023-03-23T17:36:09.481Z,23.60
2023-03-23T17:39:19.086Z,23.60
2023-03-23T17:42:28.990Z,23.50
2023-03-23T17:45:41.831Z,23.50
2023-03-23T17:48:53.709Z,23.50
2023-03-23T17:52:06.587Z,23.50
2023-03-23T17:55:16.469Z,23.40
2023-03-23T17:58:27.095Z,23.30
2023-03-23T18:01:39.637Z,23.30
2023-03-23T18:04:48.824Z,23.30
2023-03-23T18:08:01.415Z,23.30
2023-03-23T18:11:12.323Z,23.30
2023-03-23T18:14:24.522Z,23.40
2023-03-23T18:17:33.234Z,23.40
2023-03-23T18:20:45.898Z,23.60
2023-03-23T18:23:59.900Z,23.70
2023-03-23T18:27:09.422Z,23.70
2023-03-23T18:30:20.522Z,23.60
2023-03-23T18:33:33.734Z,23.60
2023-03-23T18:36:46.527Z,23.50
2023-03-23T18:39:57.346Z,23.50
2023-03-23T18:43:06.477Z,23.40
2023-03-23T18:46:20.828Z,23.40
2023-03-23T18:49:35.157Z,23.40
2023-03-23T18:52:47.537Z,23.40
2023-03-23T18:55:55.689Z,23.30
2023-03-23T18:59:06.095Z,23.40
2023-03-23T19:02:16.373Z,23.50
2023-03-23T19:05:26.459Z,23.60
2023-03-23T19:08:38.154Z,23.70
2023-03-23T19:11:50.407Z,23.80
2023-03-23T19:15:01.313Z,23.70
2023-03-23T19:18:13.831Z,23.70
2023-03-23T19:21:25.750Z,23.60
2023-03-23T19:24:35.934Z,23.50
2023-03-23T19:28:33.642Z,23.50
2023-03-23T19:30:59.641Z,23.50
2023-03-23T19:34:08.940Z,23.50
2023-03-23T19:37:21.718Z,23.40
2023-03-23T19:40:40.284Z,23.40
2023-03-23T19:43:46.442Z,23.40
2023-03-23T19:46:58.892Z,23.30
2023-03-23T19:50:12.058Z,23.30
2023-03-23T19:53:23.135Z,23.30
2023-03-23T19:56:35.023Z,23.30
2023-03-23T19:59:46.676Z,23.40
2023-03-23T20:02:58.233Z,23.60
2023-03-23T20:06:12.927Z,23.70
2023-03-23T20:09:25.331Z,23.80
2023-03-23T20:12:37.208Z,23.80
2023-03-23T20:15:48.968Z,23.70
2023-03-23T20:19:00.039Z,23.70
2023-03-23T20:22:10.711Z,23.60
2023-03-23T20:25:19.641Z,23.60
2023-03-23T20:28:30.653Z,23.60
2023-03-23T20:31:40.444Z,23.50
2023-03-23T20:34:49.880Z,23.50
2023-03-23T20:38:01.088Z,23.50
2023-03-23T20:41:14.056Z,23.50
2023-03-23T20:44:26.791Z,23.40
2023-03-23T20:47:36.807Z,23.40
2023-03-23T20:50:46.359Z,23.40
2023-03-23T20:53:57.399Z,23.50
2023-03-23T20:57:08.692Z,23.70
2023-03-23T21:00:22.372Z,23.80
2023-03-23T21:03:32.396Z,23.90
2023-03-23T21:06:40.846Z,23.80
2023-03-23T21:09:51.456Z,23.70
2023-03-23T21:13:02.364Z,23.70
2023-03-23T21:16:16.236Z,23.70
2023-03-23T21:19:24.532Z,23.60
2023-03-23T21:22:35.635Z,23.70
2023-03-23T21:25:45.554Z,23.60
2023-03-23T21:28:57.111Z,23.60
2023-03-23T21:32:08.562Z,23.60
2023-03-23T21:35:15.175Z,23.60
2023-03-23T21:38:27.080Z,23.70
2023-03-23T21:41:42.709Z,23.70
2023-03-23T21:44:51.146Z,23.70
2023-03-23T21:48:00.735Z,23.60
2023-03-23T21:51:14.806Z,23.60
2023-03-23T21:54:27.788Z,23.60
2023-03-23T21:57:38.171Z,23.60
2023-03-23T22:00:52.010Z,23.60
2023-03-23T22:04:03.176Z,23.60
2023-03-23T22:07:14.370Z,23.60
2023-03-23T22:10:25.753Z,23.60
2023-03-23T22:13:35.382Z,23.60
2023-03-23T22:16:46.735Z,23.60
2023-03-23T22:19:56.074Z,23.60
2023-03-23T22:23:05.930Z,23.60
2023-03-23T22:26:14.579Z,23.60
2023-03-23T22:29:25.731Z,23.70
2023-03-23T22:32:35.334Z,23.80
2023-03-23T22:35:47.863Z,24.00
2023-03-23T22:39:00.262Z,24.00
2023-03-23T22:42:08.629Z,24.00
2023-03-23T22:45:19.488Z,23.90
2023-03-23T22:48:30.944Z,23.80
2023-03-23T22:51:42.329Z,23.80
2023-03-23T22:54:51.692Z,23.70
2023-03-23T22:58:05.014Z,23.60
2023-03-23T23:01:12.990Z,23.60
2023-03-23T23:04:23.739Z,23.50
2023-03-23T23:07:33.931Z,23.50
2023-03-23T23:10:45.227Z,23.40
2023-03-23T23:13:56.102Z,23.40
2023-03-23T23:17:07.107Z,23.50
2023-03-23T23:20:20.729Z,23.70
2023-03-23T23:23:31.007Z,23.80
2023-03-23T23:26:42.387Z,23.80
2023-03-23T23:29:53.234Z,23.80
2023-03-23T23:33:03.439Z,23.80
2023-03-23T23:36:17.792Z,23.70
2023-03-23T23:39:32.402Z,23.60
2023-03-23T23:42:43.492Z,23.50
2023-03-23T23:45:53.656Z,23.50
2023-03-23T23:49:03.621Z,23.50
2023-03-23T23:52:15.333Z,23.60
2023-03-23T23:55:28.024Z,23.50
2023-03-23T23:58:36.572Z,23.40
